Haima — 3FMI2 — position and weather

sailwx.info

Track history (hours):
 
Tides and Currents Weather Stations Pressure Air Temp Water Temp Dewpoint Dewpoint Depression Visibility Wind Speed Wind Dir Waves Ship Positions

Haima

Last reported at 2018-Jul-04 01:58 UTC. Time now 2018-Jul-20 16:35 UTC.
Position N 02°06' E 104°48'.
Warning: this ship's position is 16 days out of date.

Length 245 m; draft 11.8 m.

Type: Ship (hazmat cat B). MMSI: 370455000.

Date/timePositionNaut miles runAvg speedWind from/ knotsBaromVisibWave heightAir tempDewpointWater temp
2018-Jul-04 01:58N 02°06' E 104°48'813.5
2018-Jul-04 01:20N 01°58' E 104°47'513.2
2018-Jul-04 00:59N 01°54' E 104°45'1013.2
2018-Jul-04 00:14N 01°45' E 104°41'313.8
2018-Jul-03 23:59N 01°41' E 104°40'813.7
2018-Jul-03 23:25N 01°34' E 104°38'613.1
2018-Jul-03 22:57N 01°30' E 104°34'614.0
2018-Jul-03 22:30N 01°25' E 104°29'714.2
2018-Jul-03 21:59N 01°21' E 104°24'714.3
2018-Jul-03 21:28N 01°17' E 104°17'714.0
2018-Jul-03 20:59N 01°16' E 104°10'613.3
2018-Jul-03 20:30N 01°15' E 104°04'612.6
2018-Jul-03 20:00N 01°14' E 103°58'613.0
2018-Jul-03 19:30N 01°11' E 103°52'713.0
2018-Jul-03 18:59N 01°08' E 103°46'611.7
2018-Jul-03 18:30N 01°04' E 103°42'5 9.7
2018-Jul-03 18:00N 01°04' E 103°37'611.8
2018-Jul-03 17:30N 01°07' E 103°32'712.0
2018-Jul-03 16:57N 01°10' E 103°26'611.8
2018-Jul-03 16:27N 01°13' E 103°22'511.5
2018-Jul-03 15:59N 01°17' E 103°18'612.5
2018-Jul-03 15:30N 01°21' E 103°13'712.0
2018-Jul-03 14:53N 01°26' E 103°07'  
Track history (hours):
 
Tides and Currents Weather Stations Pressure Air Temp Water Temp Dewpoint Dewpoint Depression Visibility Wind Speed Wind Dir Waves Ship Positions

Haima

Last reported at 2018-Jul-04 01:58 UTC. Time now 2018-Jul-20 16:35 UTC.
Position N 02°06' E 104°48'.
Warning: this ship's position is 16 days out of date.

Length 245 m; draft 11.8 m.

Type: Ship (hazmat cat B). MMSI: 370455000.

Date/timePositionNaut miles runAvg speedWind from/ knotsBaromVisibWave heightAir tempDewpointWater temp
2018-Jul-04 01:58N 02°06' E 104°48'813.5
2018-Jul-04 01:20N 01°58' E 104°47'513.2
2018-Jul-04 00:59N 01°54' E 104°45'1013.2
2018-Jul-04 00:14N 01°45' E 104°41'313.8
2018-Jul-03 23:59N 01°41' E 104°40'813.7
2018-Jul-03 23:25N 01°34' E 104°38'613.1
2018-Jul-03 22:57N 01°30' E 104°34'614.0
2018-Jul-03 22:30N 01°25' E 104°29'714.2
2018-Jul-03 21:59N 01°21' E 104°24'714.3
2018-Jul-03 21:28N 01°17' E 104°17'714.0
2018-Jul-03 20:59N 01°16' E 104°10'613.3
2018-Jul-03 20:30N 01°15' E 104°04'612.6
2018-Jul-03 20:00N 01°14' E 103°58'613.0
2018-Jul-03 19:30N 01°11' E 103°52'713.0
2018-Jul-03 18:59N 01°08' E 103°46'611.7
2018-Jul-03 18:30N 01°04' E 103°42'5 9.7
2018-Jul-03 18:00N 01°04' E 103°37'611.8
2018-Jul-03 17:30N 01°07' E 103°32'712.0
2018-Jul-03 16:57N 01°10' E 103°26'611.8
2018-Jul-03 16:27N 01°13' E 103°22'511.5
2018-Jul-03 15:59N 01°17' E 103°18'612.5
2018-Jul-03 15:30N 01°21' E 103°13'712.0
2018-Jul-03 14:53N 01°26' E 103°07'  

Dump ship's entire track history